| time (UTC) | temp C | wind direction | speed KPH | gust KPH | rain 1hr cm | rain 24hr cm | rain mn cm | humidity % | barometer mb |
| 20260508211538 | 23 | 97 | 6.4 | 11.3 | 0.00 | 0.00 | 0.00 | 81 | 984.5 |
| 20260508210031 | 23 | 101 | 0.0 | 11.3 | 0.00 | 0.00 | 0.00 | 81 | 984.7 |
| 20260508204510 | 22 | 93 | 6.4 | 12.9 | 0.00 | 0.00 | 0.00 | 81 | 984.8 |
| 20260508203006 | 22 | 74 | 1.6 | 12.9 | 0.00 | 0.00 | 0.00 | 81 | 985.3 |
| 20260508201549 | 22 | 82 | 4.8 | 14.5 | 0.00 | 0.00 | 0.00 | 81 | 985.5 |
| 20260508200104 | 22 | 71 | 4.8 | 14.5 | 0.00 | 0.00 | 0.00 | 81 | 985.5 |
| 20260508194533 | 22 | 71 | 6.4 | 14.5 | 0.00 | 0.00 | 0.00 | 81 | 985.6 |
| 20260508193022 | 22 | 98 | 3.2 | 11.3 | 0.00 | 0.00 | 0.00 | 81 | 986.0 |
| 20260508191504 | 21 | 98 | 3.2 | 11.3 | 0.00 | 0.00 | 0.00 | 81 | 986.2 |
| 20260508190104 | 21 | 111 | 0.0 | 9.7 | 0.00 | 0.00 | 0.00 | 81 | 986.4 |
| 20260508184543 | 21 | 58 | 6.4 | 11.3 | 0.00 | 0.00 | 0.00 | 81 | 986.3 |
| 20260508183054 | 21 | 86 | 4.8 | 14.5 | 0.00 | 0.00 | 0.00 | 81 | 986.4 |
| 20260508181521 | 21 | 95 | 4.8 | 11.3 | 0.00 | 0.00 | 0.00 | 81 | 986.6 |
| 20260508180021 | 21 | 52 | 4.8 | 14.5 | 0.00 | 0.00 | 0.00 | 81 | 986.7 |
| 20260508174605 | 21 | 72 | 8.0 | 14.5 | 0.00 | 0.00 | 0.00 | 82 | 986.9 |
| 20260508173056 | 20 | 59 | 6.4 | 14.5 | 0.00 | 0.00 | 0.00 | 82 | 987.1 |
| 20260508171537 | 20 | 70 | 4.8 | 8.0 | 0.00 | 0.00 | 0.00 | 82 | 987.5 |
| 20260508170035 | 20 | 69 | 0.0 | 0.0 | 0.00 | 0.00 | 0.00 | 82 | 987.6 |
| 20260508164521 | 19 | 128 | 0.0 | 0.0 | 0.00 | 0.00 | 0.00 | 82 | 987.8 |
| 20260508163023 | 19 | 130 | 0.0 | 0.0 | 0.00 | 0.00 | 0.00 | 82 | 987.9 |
| 20260508161517 | 18 | 130 | 0.0 | 0.0 | 0.00 | 0.00 | 0.00 | 82 | 987.9 |
| 20260508160013 | 18 | 130 | 0.0 | 0.0 | 0.00 | 0.00 | 0.00 | 83 | 988.3 |
| 20260508154532 | 18 | 130 | 1.6 | 6.4 | 0.00 | 0.00 | 0.00 | 83 | 988.1 |
| 20260508153012 | 18 | 130 | 3.2 | 6.4 | 0.00 | 0.00 | 0.00 | 83 | 988.4 |
| 20260508151513 | 18 | 131 | 3.2 | 6.4 | 0.00 | 0.00 | 0.00 | 83 | 988.3 |
| 20260508150008 | 17 | 131 | 3.2 | 6.4 | 0.00 | 0.00 | 0.00 | 82 | 988.2 |
| 20260508144600 | 17 | 144 | 4.8 | 9.7 | 0.00 | 0.00 | 0.00 | 82 | 988.2 |
| 20260508143047 | 17 | 116 | 1.6 | 9.7 | 0.00 | 0.00 | 0.00 | 82 | 988.2 |
| 20260508141534 | 17 | 142 | 4.8 | 8.0 | 0.00 | 0.00 | 0.00 | 82 | 988.4 |
| 20260508140028 | 16 | 138 | 0.0 | 4.8 | 0.00 | 0.00 | 0.00 | 82 | 988.4 |
| 20260508134512 | 16 | 147 | 0.0 | 0.0 | 0.00 | 0.00 | 0.00 | 82 | 988.6 |
| 20260508133011 | 16 | 147 | 0.0 | 3.2 | 0.00 | 0.00 | 0.00 | 82 | 988.5 |
| 20260508131553 | 16 | 147 | 0.0 | 9.7 | 0.00 | 0.00 | 0.00 | 82 | 988.4 |
| 20260508130051 | 16 | 163 | 0.0 | 9.7 | 0.00 | 0.00 | 0.00 | 82 | 988.5 |
| 20260508124536 | 15 | 41 | 0.0 | 0.0 | 0.00 | 0.00 | 0.00 | 82 | 988.6 |
| 20260508123045 | 15 | 40 | 0.0 | 0.0 | 0.00 | 0.00 | 0.00 | 82 | 988.6 |
| 20260508121519 | 15 | 39 | 0.0 | 0.0 | 0.00 | 0.00 | 0.00 | 82 | 988.8 |
| 20260508120015 | 15 | 40 | 1.6 | 6.4 | 0.00 | 0.00 | 0.00 | 82 | 988.8 |
| 20260508114602 | 15 | 40 | 0.0 | 6.4 | 0.00 | 0.00 | 0.00 | 82 | 989.2 |
| 20260508113056 | 15 | 40 | 6.4 | 12.9 | 0.00 | 0.00 | 0.00 | 82 | 989.1 |
| 20260508111540 | 15 | 42 | 6.4 | 11.3 | 0.00 | 0.00 | 0.00 | 82 | 988.9 |
| 20260508110038 | 15 | 42 | 6.4 | 11.3 | 0.00 | 0.00 | 0.00 | 82 | 988.8 |
| 20260508104520 | 15 | 44 | 6.4 | 11.3 | 0.00 | 0.00 | 0.00 | 83 | 988.9 |
| 20260508103022 | 15 | 42 | 4.8 | 11.3 | 0.00 | 0.00 | 0.00 | 83 | 989.3 |
| 20260508101501 | 15 | 35 | 4.8 | 9.7 | 0.00 | 0.00 | 0.00 | 83 | 989.4 |
| 20260508100002 | 15 | 42 | 6.4 | 14.5 | 0.00 | 0.00 | 0.00 | 82 | 989.6 |
| 20260508094609 | 15 | 57 | 1.6 | 9.7 | 0.00 | 0.00 | 0.00 | 82 | 989.8 |
| 20260508093043 | 15 | 60 | 0.0 | 6.4 | 0.00 | 0.00 | 0.00 | 82 | 989.6 |
| 20260508091546 | 15 | 61 | 0.0 | 0.0 | 0.00 | 0.00 | 0.00 | 81 | 989.2 |
| 20260508090043 | 15 | 62 | 0.0 | 0.0 | 0.00 | 0.00 | 0.00 | 82 | 989.1 |
| 20260508084524 | 15 | 62 | 0.0 | 0.0 | 0.00 | 0.00 | 0.00 | 82 | 989.1 |
| 20260508083012 | 15 | 62 | 0.0 | 0.0 | 0.00 | 0.00 | 0.00 | 82 | 988.7 |
| 20260508081512 | 15 | 62 | 3.2 | 8.0 | 0.00 | 0.00 | 0.00 | 81 | 988.7 |
| 20260508080011 | 15 | 63 | 3.2 | 8.0 | 0.00 | 0.00 | 0.00 | 81 | 988.6 |
| 20260508074509 | 15 | 65 | 4.8 | 6.4 | 0.00 | 0.00 | 0.00 | 81 | 988.8 |
| 20260508073009 | 15 | 65 | 3.2 | 6.4 | 0.00 | 0.00 | 0.00 | 81 | 989.2 |
| 20260508071509 | 15 | 65 | 3.2 | 8.0 | 0.00 | 0.00 | 0.00 | 81 | 989.2 |
| 20260508070008 | 14 | 67 | 0.0 | 0.0 | 0.00 | 0.00 | 0.00 | 82 | 989.7 |
| 20260508064509 | 14 | 67 | 0.0 | 0.0 | 0.00 | 0.00 | 0.00 | 82 | 989.7 |
| 20260508063057 | 14 | 67 | 0.0 | 0.0 | 0.00 | 0.00 | 0.00 | 82 | 989.8 |
| 20260508061559 | 14 | 67 | 0.0 | 0.0 | 0.00 | 0.00 | 0.00 | 82 | 990.0 |
| 20260508060033 | 14 | 67 | 0.0 | 0.0 | 0.00 | 0.00 | 0.00 | 81 | 989.7 |
| 20260508054536 | 14 | 67 | 0.0 | 0.0 | 0.00 | 0.00 | 0.00 | 81 | 989.7 |
| 20260508053018 | 14 | 67 | 3.2 | 4.8 | 0.00 | 0.00 | 0.00 | 81 | 989.6 |
| 20260508051513 | 14 | 67 | 0.0 | 0.0 | 0.00 | 0.00 | 0.00 | 81 | 990.0 |
| 20260508050054 | 14 | 67 | 0.0 | 0.0 | 0.00 | 0.00 | 0.00 | 81 | 990.1 |
| 20260508044554 | 14 | 67 | 0.0 | 0.0 | 0.00 | 0.00 | 0.00 | 81 | 990.0 |
| 20260508043036 | 14 | 67 | 0.0 | 0.0 | 0.00 | 0.00 | 0.00 | 81 | 989.6 |
| 20260508041535 | 14 | 67 | 0.0 | 0.0 | 0.00 | 0.00 | 0.00 | 82 | 990.3 |
| 20260508040016 | 15 | 67 | 0.0 | 0.0 | 0.00 | 0.00 | 0.00 | 82 | 990.3 |
| 20260508034517 | 15 | 67 | 0.0 | 0.0 | 0.00 | 0.00 | 0.00 | 82 | 990.8 |
| 20260508033100 | 15 | 63 | 0.0 | 0.0 | 0.00 | 0.00 | 0.00 | 82 | 990.4 |
| 20260508031558 | 15 | 63 | 0.0 | 0.0 | 0.00 | 0.00 | 0.00 | 83 | 990.2 |
| 20260508030036 | 15 | 63 | 1.6 | 6.4 | 0.00 | 0.00 | 0.00 | 83 | 989.5 |
| 20260508024559 | 15 | 63 | 4.8 | 8.0 | 0.00 | 0.00 | 0.00 | 83 | 989.4 |
| 20260508023017 | 15 | 64 | 4.8 | 8.0 | 0.00 | 0.00 | 0.00 | 83 | 988.8 |
| 20260508021519 | 15 | 66 | 0.0 | 0.0 | 0.00 | 0.00 | 0.00 | 83 | 988.9 |
| 20260508020109 | 15 | 66 | 0.0 | 0.0 | 0.00 | 0.00 | 0.00 | 83 | 988.8 |
| 20260508014556 | 16 | 66 | 0.0 | 0.0 | 0.00 | 0.00 | 0.00 | 83 | 989.2 |
| 20260508013037 | 16 | 66 | 0.0 | 0.0 | 0.00 | 0.00 | 0.00 | 83 | 989.1 |
| 20260508011533 | 16 | 66 | 0.0 | 0.0 | 0.00 | 0.00 | 0.00 | 82 | 989.0 |
| 20260508010014 | 16 | 66 | 0.0 | 0.0 | 0.00 | 0.00 | 0.00 | 81 | 989.3 |
| 20260508004527 | 17 | 66 | 0.0 | 0.0 | 0.00 | 0.00 | 0.00 | 79 | 989.6 |
| 20260508003050 | 17 | 66 | 0.0 | 0.0 | 0.00 | 0.00 | 0.00 | 77 | 989.4 |
| 20260508001550 | 17 | 62 | 1.6 | 4.8 | 0.00 | 0.00 | 0.00 | 76 | 989.9 |
| 20260508000030 | 17 | 63 | 4.8 | 8.0 | 0.00 | 0.00 | 0.00 | 74 | 990.3 |
| 20260507234533 | 17 | 67 | 3.2 | 8.0 | 0.00 | 0.00 | 0.00 | 74 | 990.6 |
| 20260507233010 | 17 | 80 | 6.4 | 12.9 | 0.00 | 0.00 | 0.00 | 75 | 989.8 |
| 20260507231509 | 17 | 60 | 1.6 | 9.7 | 0.00 | 0.00 | 0.00 | 73 | 989.9 |
| 20260507230105 | 17 | 46 | 8.0 | 11.3 | 0.00 | 0.00 | 0.00 | 72 | 990.1 |
| 20260507224648 | 17 | 53 | 6.4 | 9.7 | 0.00 | 0.00 | 0.00 | 72 | 990.5 |
| 20260507223028 | 17 | 80 | 4.8 | 11.3 | 0.00 | 0.00 | 0.00 | 71 | 990.3 |
| 20260507221532 | 17 | 59 | 6.4 | 14.5 | 0.00 | 0.00 | 0.00 | 71 | 990.4 |
| 20260507220012 | 17 | 40 | 8.0 | 14.5 | 0.00 | 0.00 | 0.00 | 70 | 991.2 |
| 20260507214508 | 17 | 39 | 9.7 | 17.7 | 0.00 | 0.00 | 0.00 | 71 | 991.2 |
| 20260507213049 | 17 | 31 | 9.7 | 17.7 | 0.00 | 0.00 | 0.00 | 72 | 990.7 |